createdAt,value
2018-08-13T00:00:51.283Z,70.90
2018-08-13T00:01:54.633Z,71.50
2018-08-13T00:02:57.995Z,70.90
2018-08-13T00:04:01.330Z,71.10
2018-08-13T00:05:05.263Z,71.00
2018-08-13T00:06:08.611Z,71.00
2018-08-13T00:07:12.002Z,71.20
2018-08-13T00:08:16.239Z,71.00
2018-08-13T00:09:24.850Z,70.80
2018-08-13T00:10:28.468Z,70.80
2018-08-13T00:11:31.817Z,71.60
2018-08-13T00:12:35.201Z,71.00
2018-08-13T00:13:38.588Z,71.20
2018-08-13T00:14:41.962Z,72.00
2018-08-13T00:15:45.338Z,71.40
2018-08-13T00:16:48.647Z,71.40
2018-08-13T00:17:52.024Z,71.00
2018-08-13T00:18:55.371Z,70.90
2018-08-13T00:19:58.783Z,71.20
2018-08-13T00:21:02.098Z,71.40
2018-08-13T00:22:05.667Z,72.10
2018-08-13T00:23:09.479Z,72.50
2018-08-13T00:24:12.795Z,72.20
2018-08-13T00:25:16.255Z,72.20
2018-08-13T00:26:19.599Z,72.20
2018-08-13T00:27:22.918Z,72.20
2018-08-13T00:28:26.231Z,72.20
2018-08-13T00:29:29.560Z,72.00
2018-08-13T00:30:39.983Z,72.00
2018-08-13T00:31:43.318Z,72.40
2018-08-13T00:32:46.649Z,72.50
2018-08-13T00:33:49.974Z,72.90
2018-08-13T00:34:53.299Z,73.30
2018-08-13T00:35:56.674Z,73.20
2018-08-13T00:37:00.004Z,73.00
2018-08-13T00:38:03.354Z,73.40
2018-08-13T00:39:09.451Z,73.30
2018-08-13T00:40:13.703Z,73.40
2018-08-13T00:41:17.055Z,73.50
2018-08-13T00:42:20.378Z,74.10
2018-08-13T00:43:23.713Z,74.10
2018-08-13T00:44:27.063Z,74.10
2018-08-13T00:45:30.399Z,74.00
2018-08-13T00:46:40.287Z,74.50
2018-08-13T00:47:43.736Z,74.70
2018-08-13T00:48:47.060Z,74.70
2018-08-13T00:49:50.383Z,75.30
2018-08-13T00:50:53.746Z,75.00
2018-08-13T00:51:57.089Z,75.50
2018-08-13T00:53:06.971Z,76.20
2018-08-13T00:54:10.312Z,76.40
2018-08-13T00:55:14.714Z,75.90
2018-08-13T00:56:18.049Z,76.00
2018-08-13T00:57:21.385Z,75.80
2018-08-13T00:58:24.758Z,76.50
2018-08-13T00:59:28.114Z,77.10
2018-08-13T01:00:31.452Z,77.00
2018-08-13T01:01:34.786Z,77.30
2018-08-13T01:02:38.128Z,77.80
2018-08-13T01:03:41.520Z,77.90
2018-08-13T01:04:44.871Z,78.40
2018-08-13T01:05:48.202Z,78.60
2018-08-13T01:06:51.556Z,78.30
2018-08-13T01:07:54.886Z,78.40
2018-08-13T01:08:58.279Z,78.50
2018-08-13T01:10:01.607Z,78.40
2018-08-13T01:11:04.934Z,78.70
2018-08-13T01:12:08.281Z,78.60
2018-08-13T01:13:11.632Z,78.80
2018-08-13T01:14:14.982Z,79.40
2018-08-13T01:15:19.387Z,79.80
2018-08-13T01:16:22.731Z,79.70
2018-08-13T01:17:26.037Z,79.50
2018-08-13T01:18:29.732Z,80.10
2018-08-13T01:19:33.102Z,81.60
2018-08-13T01:20:36.428Z,82.20
2018-08-13T01:21:39.791Z,82.30
2018-08-13T01:22:43.134Z,82.40
2018-08-13T01:23:46.472Z,82.10
2018-08-13T01:24:49.824Z,82.40
2018-08-13T01:25:53.198Z,82.40
2018-08-13T01:26:56.519Z,82.50
2018-08-13T01:27:59.867Z,82.50
2018-08-13T01:29:03.216Z,82.50
2018-08-13T01:30:07.031Z,82.70
2018-08-13T01:31:10.396Z,82.60
2018-08-13T01:32:13.719Z,82.60
2018-08-13T01:33:17.075Z,83.00
2018-08-13T01:34:20.421Z,83.00
2018-08-13T01:35:23.766Z,82.90
2018-08-13T01:36:27.091Z,83.70
2018-08-13T01:37:30.448Z,83.00
2018-08-13T01:38:33.820Z,83.30
2018-08-13T01:39:37.206Z,82.90
2018-08-13T01:40:40.572Z,83.60
2018-08-13T01:41:43.905Z,82.90
2018-08-13T01:42:47.266Z,83.40
2018-08-13T01:43:50.589Z,83.60
2018-08-13T01:44:54.100Z,83.60
2018-08-13T01:45:57.410Z,83.90
2018-08-13T01:47:00.762Z,84.10
2018-08-13T01:48:04.596Z,84.20
2018-08-13T01:49:07.933Z,84.70
2018-08-13T01:50:12.568Z,84.90
2018-08-13T01:51:15.895Z,85.50
2018-08-13T01:52:19.606Z,85.80
2018-08-13T01:53:22.964Z,85.70
2018-08-13T01:54:26.303Z,86.30
2018-08-13T01:55:29.696Z,86.50
2018-08-13T01:56:33.071Z,86.50
2018-08-13T01:57:36.414Z,87.10
2018-08-13T01:58:39.767Z,87.50
2018-08-13T01:59:43.203Z,87.70
2018-08-13T02:00:46.524Z,88.10
2018-08-13T02:01:49.949Z,88.90
2018-08-13T02:02:53.234Z,88.20
2018-08-13T02:03:56.606Z,88.10
2018-08-13T02:04:59.968Z,88.10
2018-08-13T02:06:03.392Z,88.20
2018-08-13T02:07:06.868Z,88.20
2018-08-13T02:08:10.194Z,88.40
2018-08-13T02:09:13.549Z,88.30
2018-08-13T02:10:16.919Z,88.50
2018-08-13T02:11:20.248Z,88.30
2018-08-13T02:12:23.615Z,88.60
2018-08-13T02:13:26.948Z,88.90
2018-08-13T02:14:30.517Z,89.00
2018-08-13T02:15:33.903Z,89.50
2018-08-13T02:16:37.275Z,89.90
2018-08-13T02:17:40.628Z,89.90
2018-08-13T02:18:43.942Z,89.90
2018-08-13T02:19:47.289Z,89.80
2018-08-13T02:20:50.655Z,90.20
2018-08-13T02:21:54.143Z,90.20
2018-08-13T02:22:57.495Z,90.40
2018-08-13T02:24:00.847Z,90.60
2018-08-13T02:25:05.746Z,90.80
2018-08-13T02:26:09.061Z,90.90
2018-08-13T02:27:12.369Z,91.00
2018-08-13T02:28:15.773Z,91.00
2018-08-13T02:29:19.132Z,91.10
2018-08-13T02:30:22.499Z,91.70
2018-08-13T02:31:25.842Z,91.90
2018-08-13T02:32:29.194Z,91.70
2018-08-13T02:33:32.547Z,91.70
2018-08-13T02:34:35.867Z,91.60
2018-08-13T02:35:39.214Z,91.60
2018-08-13T02:36:42.560Z,91.50
2018-08-13T02:37:45.932Z,91.50
2018-08-13T02:38:49.229Z,91.60
2018-08-13T02:39:52.555Z,91.70
2018-08-13T02:40:55.896Z,91.70
2018-08-13T02:41:59.250Z,92.00
2018-08-13T02:43:02.665Z,92.10
2018-08-13T02:44:06.021Z,92.00
2018-08-13T02:45:10.465Z,92.00
2018-08-13T02:46:13.808Z,91.90
2018-08-13T02:47:17.118Z,92.10
2018-08-13T02:48:20.433Z,92.40
2018-08-13T02:49:23.775Z,92.40
2018-08-13T02:50:27.114Z,92.10
2018-08-13T02:51:30.793Z,91.90
2018-08-13T02:52:34.143Z,92.00
2018-08-13T02:53:37.523Z,92.10
2018-08-13T02:54:40.864Z,92.00
2018-08-13T02:55:44.188Z,92.00
2018-08-13T02:56:47.531Z,91.90
2018-08-13T02:57:50.860Z,92.20
2018-08-13T02:58:54.271Z,92.30
2018-08-13T02:59:57.598Z,92.20
2018-08-13T03:01:00.914Z,92.30
2018-08-13T03:02:04.491Z,92.40
2018-08-13T03:03:07.996Z,92.60
2018-08-13T03:04:11.425Z,92.90
2018-08-13T03:05:14.767Z,92.90
2018-08-13T03:06:18.108Z,93.30
2018-08-13T03:07:21.468Z,93.20
2018-08-13T03:08:24.789Z,92.90
2018-08-13T03:09:28.111Z,93.00
2018-08-13T03:10:31.423Z,93.10
2018-08-13T03:11:34.807Z,93.20
2018-08-13T03:12:38.483Z,93.30
2018-08-13T03:13:41.857Z,93.40
2018-08-13T03:14:45.197Z,93.40
2018-08-13T03:15:48.541Z,93.40
2018-08-13T03:16:51.919Z,93.50
2018-08-13T03:17:55.256Z,93.50
2018-08-13T03:18:58.607Z,93.50
2018-08-13T03:20:02.044Z,93.60
2018-08-13T03:21:05.394Z,93.90
2018-08-13T03:22:08.768Z,94.00
2018-08-13T03:23:12.110Z,94.00
2018-08-13T03:24:22.174Z,94.20
2018-08-13T03:25:25.487Z,94.40
2018-08-13T03:26:28.811Z,94.50
2018-08-13T03:27:32.167Z,94.70
2018-08-13T03:28:35.529Z,94.70
2018-08-13T03:29:38.870Z,94.70
2018-08-13T03:30:42.213Z,94.70
2018-08-13T03:31:45.600Z,94.60
2018-08-13T03:32:48.966Z,94.80
2018-08-13T03:33:52.279Z,95.00
2018-08-13T03:34:55.630Z,94.90
2018-08-13T03:35:59.010Z,95.10
2018-08-13T03:37:02.525Z,95.10
2018-08-13T03:38:05.960Z,95.30
2018-08-13T03:39:11.703Z,95.30
2018-08-13T03:40:15.069Z,95.20
2018-08-13T03:41:18.387Z,95.30
2018-08-13T03:42:21.708Z,95.30
2018-08-13T03:43:25.060Z,95.40
2018-08-13T03:44:28.366Z,95.50
2018-08-13T03:45:31.678Z,95.80
2018-08-13T03:46:35.035Z,96.20
2018-08-13T03:47:38.402Z,95.90
2018-08-13T03:48:41.710Z,95.60
2018-08-13T03:49:45.026Z,95.30
2018-08-13T03:50:48.432Z,95.50
2018-08-13T03:51:51.836Z,95.40
2018-08-13T03:52:55.182Z,96.00
2018-08-13T03:53:58.490Z,95.80
2018-08-13T03:55:01.875Z,95.80
2018-08-13T03:56:05.656Z,96.00
2018-08-13T03:57:09.022Z,96.00
2018-08-13T03:58:12.423Z,95.90
2018-08-13T03:59:15.786Z,95.90
2018-08-13T04:00:19.159Z,95.80
2018-08-13T04:01:22.489Z,96.00
2018-08-13T04:02:25.793Z,96.10
2018-08-13T04:03:29.127Z,96.10
2018-08-13T04:04:32.490Z,96.10
2018-08-13T04:05:35.860Z,96.20
2018-08-13T04:06:39.179Z,96.60
2018-08-13T04:07:42.638Z,96.80
2018-08-13T04:08:45.936Z,97.10
2018-08-13T04:09:49.303Z,97.10
2018-08-13T04:10:52.642Z,97.10
2018-08-13T04:11:55.950Z,96.90
2018-08-13T04:12:59.323Z,96.70
2018-08-13T04:14:03.251Z,96.50
2018-08-13T04:15:08.291Z,96.50
2018-08-13T04:16:11.675Z,96.20
2018-08-13T04:17:15.079Z,96.00
2018-08-13T04:18:18.417Z,95.80
2018-08-13T04:19:21.746Z,95.80
2018-08-13T04:20:25.095Z,95.70
2018-08-13T04:21:28.501Z,95.70
2018-08-13T04:22:31.830Z,95.90
2018-08-13T04:23:38.108Z,96.00
2018-08-13T04:24:41.434Z,95.90
2018-08-13T04:25:44.791Z,95.90
2018-08-13T04:26:48.107Z,96.20
2018-08-13T04:27:51.427Z,96.30
2018-08-13T04:28:54.798Z,96.10
2018-08-13T04:29:58.118Z,96.40
2018-08-13T04:31:01.439Z,96.60
2018-08-13T04:32:04.777Z,96.40
2018-08-13T04:33:08.142Z,96.20
2018-08-13T04:34:11.463Z,96.10
2018-08-13T04:35:14.875Z,96.10
2018-08-13T04:36:18.260Z,96.30
2018-08-13T04:37:21.662Z,96.50
2018-08-13T04:38:25.034Z,96.40
2018-08-13T04:39:28.391Z,96.50
2018-08-13T04:40:31.730Z,96.30
2018-08-13T04:41:35.057Z,95.80
2018-08-13T04:42:38.420Z,96.10
2018-08-13T04:43:41.783Z,95.70
2018-08-13T04:44:45.128Z,96.00
2018-08-13T04:45:48.455Z,95.90
2018-08-13T04:46:51.798Z,95.90
2018-08-13T04:47:55.914Z,95.90
2018-08-13T04:48:59.292Z,96.00
2018-08-13T04:50:02.647Z,95.80
2018-08-13T04:51:06.004Z,95.70
2018-08-13T04:52:09.376Z,95.60
2018-08-13T04:53:12.675Z,96.00
2018-08-13T04:54:16.038Z,95.90
2018-08-13T04:55:20.331Z,95.90
2018-08-13T04:56:23.654Z,95.70
2018-08-13T04:57:27.208Z,95.80
2018-08-13T04:58:30.590Z,95.40
2018-08-13T04:59:33.924Z,95.70
2018-08-13T05:00:37.268Z,95.60
2018-08-13T05:01:40.628Z,95.60
2018-08-13T05:02:43.995Z,95.60
2018-08-13T05:03:47.524Z,95.70
2018-08-13T05:04:50.846Z,95.60
2018-08-13T05:05:54.442Z,95.70
2018-08-13T05:06:57.775Z,95.70
2018-08-13T05:08:01.136Z,95.70
2018-08-13T05:09:07.427Z,95.60
2018-08-13T05:10:11.509Z,95.50
2018-08-13T05:11:14.903Z,95.40
2018-08-13T05:12:18.258Z,95.90
2018-08-13T05:13:21.702Z,95.90
2018-08-13T05:14:25.043Z,95.80
2018-08-13T05:15:28.364Z,96.30
2018-08-13T05:16:31.735Z,95.80
2018-08-13T05:17:35.796Z,95.60
2018-08-13T05:18:39.131Z,95.50
2018-08-13T05:19:42.487Z,95.30
2018-08-13T05:20:45.794Z,95.30
2018-08-13T05:21:49.202Z,95.70
2018-08-13T05:22:52.510Z,95.40
2018-08-13T05:23:55.875Z,95.10
2018-08-13T05:24:59.218Z,94.90
2018-08-13T05:26:02.534Z,95.20
2018-08-13T05:28:15.470Z,94.60
2018-08-13T05:29:18.773Z,95.00
2018-08-13T05:30:22.103Z,94.90
2018-08-13T05:31:25.434Z,94.80
2018-08-13T05:32:28.773Z,94.50
2018-08-13T05:33:32.250Z,94.50
2018-08-13T05:34:35.574Z,94.40
2018-08-13T05:35:38.916Z,94.20
2018-08-13T05:36:42.259Z,93.90
2018-08-13T05:37:45.582Z,93.80
2018-08-13T05:38:48.970Z,93.50
2018-08-13T05:39:52.332Z,93.70
2018-08-13T05:40:55.678Z,93.50
2018-08-13T05:41:59.051Z,93.40
2018-08-13T05:43:02.351Z,93.40
2018-08-13T05:44:05.749Z,93.20
2018-08-13T05:45:09.857Z,93.50
2018-08-13T05:46:13.219Z,93.10
2018-08-13T05:47:16.594Z,93.20
2018-08-13T05:48:19.910Z,93.60
2018-08-13T05:49:23.271Z,93.80
2018-08-13T05:50:26.634Z,93.80
2018-08-13T05:51:30.095Z,93.70
2018-08-13T05:52:33.468Z,93.80
2018-08-13T05:53:36.782Z,93.60
2018-08-13T05:54:40.167Z,93.40
2018-08-13T05:55:43.495Z,92.70
2018-08-13T05:56:46.814Z,92.60
2018-08-13T05:57:50.141Z,92.70
2018-08-13T05:58:53.490Z,92.50
2018-08-13T05:59:56.860Z,92.60
2018-08-13T06:01:01.267Z,92.70
2018-08-13T06:02:04.982Z,93.20
2018-08-13T06:03:08.312Z,93.70
2018-08-13T06:04:11.651Z,93.80
2018-08-13T06:05:15.017Z,94.00
2018-08-13T06:06:18.329Z,93.80
2018-08-13T06:07:21.663Z,94.00
2018-08-13T06:08:24.997Z,94.20
2018-08-13T06:09:28.339Z,94.20
2018-08-13T06:10:31.691Z,94.40
2018-08-13T06:11:35.096Z,94.20
2018-08-13T06:12:38.520Z,94.20
2018-08-13T06:13:41.939Z,94.00
2018-08-13T06:14:45.262Z,93.90
2018-08-13T06:15:48.633Z,94.20
2018-08-13T06:16:51.954Z,94.40
2018-08-13T06:17:55.295Z,94.30
2018-08-13T06:18:58.661Z,94.30
2018-08-13T06:20:02.063Z,94.10
2018-08-13T06:21:05.462Z,94.20
2018-08-13T06:22:08.807Z,93.80
2018-08-13T06:23:12.124Z,94.50
2018-08-13T06:24:15.582Z,94.50
2018-08-13T06:25:18.933Z,94.40
2018-08-13T06:26:22.262Z,94.80
2018-08-13T06:27:25.633Z,94.40
2018-08-13T06:28:28.967Z,94.20
2018-08-13T06:29:32.333Z,94.10
2018-08-13T06:30:35.688Z,94.60
2018-08-13T06:31:39.036Z,94.10
2018-08-13T06:32:42.922Z,94.00
2018-08-13T06:33:46.275Z,94.10
2018-08-13T06:34:49.604Z,94.10
2018-08-13T06:35:52.915Z,94.00
2018-08-13T06:36:56.231Z,93.80
2018-08-13T06:37:59.600Z,93.70
2018-08-13T06:39:03.078Z,93.50
2018-08-13T06:40:07.019Z,93.40
2018-08-13T06:41:10.363Z,93.30
2018-08-13T06:42:13.826Z,93.20
2018-08-13T06:43:17.187Z,93.10
2018-08-13T06:44:20.562Z,92.80
2018-08-13T06:45:23.910Z,92.60
2018-08-13T06:46:27.233Z,92.50
2018-08-13T06:47:30.555Z,92.90
2018-08-13T06:48:33.931Z,93.10
2018-08-13T06:49:37.262Z,92.80
2018-08-13T06:50:40.679Z,92.50
2018-08-13T06:51:43.999Z,91.60
2018-08-13T06:52:47.335Z,90.60
2018-08-13T06:53:50.736Z,88.80
2018-08-13T06:54:54.073Z,88.90
2018-08-13T06:55:57.450Z,88.80
2018-08-13T06:57:00.824Z,88.00
2018-08-13T06:58:04.189Z,87.50
2018-08-13T06:59:07.572Z,87.80
2018-08-13T07:00:13.097Z,87.90
2018-08-13T07:01:19.505Z,85.20
2018-08-13T07:02:22.823Z,82.30
2018-08-13T07:03:26.138Z,82.70
2018-08-13T07:04:29.586Z,81.30
2018-08-13T07:05:32.908Z,81.90
2018-08-13T07:06:36.284Z,81.50
2018-08-13T07:07:40.186Z,81.90
2018-08-13T07:08:43.507Z,81.70
2018-08-13T07:09:46.910Z,81.60
2018-08-13T07:11:59.951Z,80.90
2018-08-13T07:13:03.698Z,81.30
2018-08-13T07:14:07.347Z,81.00
2018-08-13T07:15:11.039Z,82.30
2018-08-13T07:16:14.379Z,80.90
2018-08-13T07:17:17.788Z,80.90
2018-08-13T07:18:21.103Z,81.70
2018-08-13T07:19:24.466Z,82.20
2018-08-13T07:20:27.832Z,82.40
2018-08-13T07:21:31.149Z,80.80
2018-08-13T07:22:34.497Z,81.30
2018-08-13T07:23:37.851Z,80.50
2018-08-13T07:24:41.185Z,80.50
2018-08-13T07:25:47.464Z,79.90
2018-08-13T07:26:50.784Z,78.90
2018-08-13T07:27:54.228Z,78.90
2018-08-13T07:28:57.542Z,79.00
2018-08-13T07:30:01.204Z,78.50
2018-08-13T07:31:04.575Z,78.10
2018-08-13T07:32:07.928Z,77.60
2018-08-13T07:33:11.271Z,76.70
2018-08-13T07:34:14.675Z,76.40
2018-08-13T07:35:17.999Z,76.10
2018-08-13T07:36:21.323Z,76.00
2018-08-13T07:37:24.702Z,75.70
2018-08-13T07:38:28.058Z,75.60
2018-08-13T07:39:31.498Z,74.90
2018-08-13T07:40:34.829Z,75.00
2018-08-13T07:41:38.375Z,75.00
2018-08-13T07:42:41.738Z,75.60
2018-08-13T07:43:45.134Z,74.20
2018-08-13T07:44:48.514Z,74.90
2018-08-13T07:45:51.900Z,75.00
2018-08-13T07:46:55.266Z,73.00
2018-08-13T07:47:58.663Z,73.20
2018-08-13T07:49:02.066Z,72.50
2018-08-13T07:50:06.726Z,72.50
2018-08-13T07:51:10.051Z,72.90
2018-08-13T07:52:13.381Z,72.60
2018-08-13T07:53:16.706Z,72.40
2018-08-13T07:54:20.087Z,73.60
2018-08-13T07:55:23.465Z,73.50
2018-08-13T07:56:26.818Z,73.00
2018-08-13T07:57:30.172Z,73.80
2018-08-13T07:58:33.590Z,73.80
2018-08-13T07:59:36.959Z,73.20
2018-08-13T08:00:40.327Z,73.70
2018-08-13T08:01:43.664Z,73.30
2018-08-13T08:02:47.355Z,73.60
2018-08-13T08:03:51.004Z,73.90
2018-08-13T08:04:54.350Z,73.40
2018-08-13T08:05:57.715Z,74.00
2018-08-13T08:07:01.182Z,73.40
2018-08-13T08:08:04.546Z,73.70
2018-08-13T08:09:09.917Z,73.80
2018-08-13T08:10:15.774Z,73.90
2018-08-13T08:11:19.152Z,74.10
2018-08-13T08:12:22.523Z,74.30
2018-08-13T08:13:25.918Z,74.60
2018-08-13T08:14:29.319Z,74.40
2018-08-13T08:15:32.719Z,74.40
2018-08-13T08:16:36.135Z,74.50
2018-08-13T08:17:39.539Z,74.00
2018-08-13T08:18:42.959Z,74.00
2018-08-13T08:19:46.335Z,73.50
2018-08-13T08:20:49.698Z,73.70
2018-08-13T08:21:53.074Z,73.90
2018-08-13T08:23:01.870Z,73.90
2018-08-13T08:24:05.238Z,73.00
2018-08-13T08:25:11.420Z,72.30
2018-08-13T08:26:14.763Z,72.70
2018-08-13T08:27:18.119Z,71.30
2018-08-13T08:28:21.541Z,71.00
2018-08-13T08:29:24.976Z,70.80
2018-08-13T08:30:28.300Z,70.80
2018-08-13T08:31:31.667Z,70.60
2018-08-13T08:32:35.324Z,71.00
2018-08-13T08:33:38.715Z,71.00
2018-08-13T08:34:42.176Z,70.90
2018-08-13T08:35:45.509Z,71.30
2018-08-13T08:36:48.890Z,71.00
2018-08-13T08:37:52.274Z,72.20
2018-08-13T08:38:55.611Z,73.30
2018-08-13T08:39:58.972Z,74.70
2018-08-13T08:41:02.333Z,76.40
2018-08-13T08:42:05.743Z,78.80
2018-08-13T08:43:10.143Z,79.00
2018-08-13T08:44:13.499Z,81.50
2018-08-13T08:45:20.603Z,81.90
2018-08-13T08:46:23.930Z,82.60
2018-08-13T08:47:27.311Z,82.30
2018-08-13T08:48:30.692Z,81.40
2018-08-13T08:49:40.674Z,82.40
2018-08-13T08:50:44.019Z,85.40
2018-08-13T08:51:47.401Z,84.50
2018-08-13T08:52:50.730Z,84.50
2018-08-13T08:53:54.084Z,84.20
2018-08-13T08:54:57.484Z,84.70
2018-08-13T08:56:00.849Z,87.60
2018-08-13T08:57:05.255Z,87.20
2018-08-13T08:58:08.722Z,87.80
2018-08-13T08:59:12.039Z,87.90
2018-08-13T09:00:17.839Z,88.30
2018-08-13T09:01:21.223Z,87.20
2018-08-13T09:02:24.588Z,89.40
2018-08-13T09:03:27.946Z,88.00
2018-08-13T09:04:31.354Z,88.90
2018-08-13T09:05:34.756Z,89.10
2018-08-13T09:06:38.357Z,89.80
2018-08-13T09:07:42.631Z,90.10
2018-08-13T09:08:45.967Z,90.30
2018-08-13T09:09:49.294Z,90.10
2018-08-13T09:10:52.656Z,90.60
2018-08-13T09:11:56.035Z,91.10
2018-08-13T09:12:59.355Z,91.20
2018-08-13T09:14:02.704Z,90.80
2018-08-13T09:15:06.736Z,92.00
2018-08-13T09:16:10.061Z,91.40
2018-08-13T09:17:13.457Z,91.30
2018-08-13T09:18:28.206Z,91.80
2018-08-13T09:19:42.931Z,92.40
2018-08-13T09:20:57.617Z,92.60
2018-08-13T09:22:12.179Z,92.50
2018-08-13T09:23:26.923Z,93.10
2018-08-13T09:24:41.772Z,93.20
2018-08-13T09:25:56.492Z,93.80
2018-08-13T09:27:11.007Z,95.20
2018-08-13T09:28:25.787Z,95.20
2018-08-13T09:29:40.609Z,96.40
2018-08-13T09:30:55.332Z,96.90
2018-08-13T09:32:29.285Z,98.50
2018-08-13T09:33:44.179Z,99.90
2018-08-13T09:34:58.051Z,99.90
2018-08-13T09:36:01.387Z,99.90
2018-08-13T09:37:04.719Z,99.90
2018-08-13T09:38:08.100Z,99.90
2018-08-13T09:39:11.609Z,99.90
2018-08-13T09:40:15.001Z,99.90
2018-08-13T09:41:18.336Z,99.90
2018-08-13T09:42:21.998Z,99.90
2018-08-13T09:43:25.327Z,99.90
2018-08-13T09:44:28.702Z,99.90
2018-08-13T09:45:38.613Z,99.90
2018-08-13T09:46:41.987Z,99.90
2018-08-13T09:47:45.334Z,99.90
2018-08-13T09:48:48.691Z,99.90
2018-08-13T09:49:52.060Z,99.90
2018-08-13T09:50:55.633Z,99.90
2018-08-13T09:51:58.996Z,99.90
2018-08-13T09:53:02.376Z,99.90
2018-08-13T09:54:05.799Z,99.90
2018-08-13T09:55:16.535Z,99.90
2018-08-13T09:56:19.867Z,99.90
2018-08-13T09:57:23.200Z,99.90
2018-08-13T09:58:26.554Z,99.90
2018-08-13T09:59:29.923Z,99.90
2018-08-13T10:00:38.776Z,99.90
2018-08-13T10:01:42.123Z,99.90
2018-08-13T10:02:46.398Z,99.90
2018-08-13T10:03:49.728Z,99.90
2018-08-13T10:04:53.091Z,99.90
2018-08-13T10:05:56.440Z,99.90
2018-08-13T10:06:59.786Z,99.90
2018-08-13T10:08:03.186Z,99.90
2018-08-13T10:09:07.487Z,99.90
2018-08-13T10:10:11.507Z,99.90
2018-08-13T10:11:14.906Z,99.90
2018-08-13T10:12:18.310Z,99.90
2018-08-13T10:13:21.709Z,99.90
2018-08-13T10:14:28.027Z,99.90
2018-08-13T10:15:31.367Z,99.90
2018-08-13T10:16:34.800Z,99.90
2018-08-13T10:17:38.307Z,99.90
2018-08-13T10:18:41.648Z,99.90
2018-08-13T10:19:45.064Z,99.90
2018-08-13T10:20:48.415Z,99.90
2018-08-13T10:21:51.779Z,99.90
2018-08-13T10:22:55.127Z,99.90
2018-08-13T10:23:58.454Z,99.90
2018-08-13T10:25:01.879Z,99.90
2018-08-13T10:26:05.227Z,99.90
2018-08-13T10:27:08.639Z,99.90
2018-08-13T10:28:12.011Z,99.90
2018-08-13T10:29:15.368Z,99.90
2018-08-13T10:30:18.775Z,99.90
2018-08-13T10:31:22.180Z,99.90
2018-08-13T10:32:25.538Z,99.90
2018-08-13T10:33:28.899Z,99.90
2018-08-13T10:34:32.274Z,99.90
2018-08-13T10:35:35.593Z,99.90
2018-08-13T10:36:38.967Z,99.90
2018-08-13T10:37:42.827Z,99.90
2018-08-13T10:38:46.150Z,99.90
2018-08-13T10:39:55.986Z,99.90
2018-08-13T10:40:59.342Z,99.90
2018-08-13T10:42:02.728Z,99.90
2018-08-13T10:43:06.118Z,99.90
2018-08-13T10:44:10.081Z,99.90
2018-08-13T10:45:13.560Z,99.90
2018-08-13T10:46:16.912Z,99.90
2018-08-13T10:47:20.446Z,99.90
2018-08-13T10:48:23.774Z,99.90
2018-08-13T10:49:27.091Z,99.90
2018-08-13T10:50:30.440Z,99.90
2018-08-13T10:51:33.820Z,99.90
2018-08-13T10:52:37.411Z,99.90
2018-08-13T10:53:40.746Z,99.90
2018-08-13T10:54:44.076Z,99.90
2018-08-13T10:55:47.405Z,99.90
2018-08-13T10:56:50.782Z,99.90
2018-08-13T10:57:54.139Z,99.90
2018-08-13T10:58:57.526Z,99.90
2018-08-13T11:00:00.886Z,99.90
2018-08-13T11:01:04.309Z,99.90
2018-08-13T11:02:07.586Z,99.90
2018-08-13T11:03:10.966Z,99.90
2018-08-13T11:04:14.319Z,99.90
2018-08-13T11:05:17.682Z,99.90
2018-08-13T11:06:21.023Z,99.90
2018-08-13T11:07:24.350Z,99.90
2018-08-13T11:08:27.755Z,99.90
2018-08-13T11:09:31.114Z,99.90
2018-08-13T11:10:34.447Z,99.90
2018-08-13T11:11:37.807Z,99.90
2018-08-13T11:12:41.183Z,99.90
2018-08-13T11:13:44.566Z,99.90
2018-08-13T11:14:48.171Z,99.90
2018-08-13T11:15:51.510Z,99.90
2018-08-13T11:16:54.862Z,99.90
2018-08-13T11:17:58.200Z,99.90
2018-08-13T11:19:01.664Z,99.90
2018-08-13T11:20:05.311Z,99.90
2018-08-13T11:21:08.663Z,99.90
2018-08-13T11:22:12.099Z,99.90
2018-08-13T11:23:15.462Z,99.90
2018-08-13T11:24:18.782Z,99.90
2018-08-13T11:25:28.547Z,99.90
2018-08-13T11:26:31.875Z,99.90
2018-08-13T11:27:35.200Z,99.90
2018-08-13T11:28:38.617Z,99.90
2018-08-13T11:29:43.798Z,99.90
2018-08-13T11:30:47.144Z,99.90
2018-08-13T11:31:50.479Z,99.90
2018-08-13T11:32:53.814Z,99.90
2018-08-13T11:33:57.162Z,99.90
2018-08-13T11:35:00.512Z,99.90
2018-08-13T11:36:03.929Z,99.90
2018-08-13T11:37:07.279Z,99.90
2018-08-13T11:38:10.619Z,99.90
2018-08-13T11:39:13.931Z,99.90
2018-08-13T11:40:18.073Z,99.90
2018-08-13T11:41:21.546Z,99.90
2018-08-13T11:42:24.865Z,99.90
2018-08-13T11:43:28.178Z,99.90
2018-08-13T11:44:31.539Z,99.90
2018-08-13T11:45:34.855Z,99.90
2018-08-13T11:46:38.277Z,99.90
2018-08-13T11:47:41.878Z,99.90
2018-08-13T11:48:45.192Z,99.90
2018-08-13T11:49:48.506Z,99.90
2018-08-13T11:50:51.867Z,99.90
2018-08-13T11:51:55.238Z,99.90
2018-08-13T11:52:58.568Z,99.90
2018-08-13T11:54:02.599Z,99.90
2018-08-13T11:55:05.975Z,99.90
2018-08-13T11:56:09.392Z,99.90
2018-08-13T11:57:12.708Z,99.90
2018-08-13T11:58:16.016Z,99.90
2018-08-13T11:59:19.355Z,99.90
2018-08-13T12:00:22.671Z,99.90
2018-08-13T12:01:25.998Z,99.90
2018-08-13T12:02:29.326Z,99.90
2018-08-13T12:03:32.751Z,99.90
2018-08-13T12:04:36.087Z,99.90
2018-08-13T12:05:39.438Z,99.90
2018-08-13T12:06:42.820Z,99.90
2018-08-13T12:07:46.253Z,99.90
2018-08-13T12:08:49.654Z,99.90
2018-08-13T12:09:52.987Z,99.90
2018-08-13T12:10:56.405Z,99.90
2018-08-13T12:11:59.723Z,99.90
2018-08-13T12:13:03.042Z,99.90
2018-08-13T12:14:06.521Z,99.90
2018-08-13T12:15:10.922Z,99.90
2018-08-13T12:16:14.296Z,99.90
2018-08-13T12:17:17.656Z,99.90
2018-08-13T12:18:20.989Z,99.90
2018-08-13T12:19:24.389Z,99.90
2018-08-13T12:20:27.774Z,99.90
2018-08-13T12:21:31.195Z,99.90
2018-08-13T12:22:34.528Z,99.90
2018-08-13T12:23:37.900Z,99.90
2018-08-13T12:24:41.222Z,99.90
2018-08-13T12:25:44.568Z,99.90
2018-08-13T12:26:47.930Z,99.90
2018-08-13T12:27:51.378Z,99.90
2018-08-13T12:28:54.712Z,99.90
2018-08-13T12:29:58.040Z,99.90
2018-08-13T12:31:01.379Z,99.90
2018-08-13T12:32:04.761Z,99.90
2018-08-13T12:33:08.088Z,99.90
2018-08-13T12:34:11.439Z,99.90
2018-08-13T12:35:14.803Z,99.90
2018-08-13T12:36:18.140Z,99.90
2018-08-13T12:37:21.497Z,99.90
2018-08-13T12:38:24.847Z,99.90
2018-08-13T12:39:28.191Z,99.90
2018-08-13T12:40:31.535Z,99.90
2018-08-13T12:41:34.933Z,99.90
2018-08-13T12:42:39.064Z,99.90
2018-08-13T12:43:42.423Z,99.90
2018-08-13T12:44:45.750Z,99.90
2018-08-13T12:45:49.099Z,99.90
2018-08-13T12:46:52.481Z,99.90
2018-08-13T12:47:55.887Z,99.90
2018-08-13T12:48:59.252Z,99.90
2018-08-13T12:50:02.635Z,99.90
2018-08-13T12:51:06.162Z,99.90
2018-08-13T12:52:09.487Z,99.90
2018-08-13T12:53:12.871Z,99.90
2018-08-13T12:54:16.308Z,99.90
2018-08-13T12:55:19.639Z,99.90
2018-08-13T12:56:22.986Z,99.90
2018-08-13T12:57:26.334Z,99.90
2018-08-13T12:58:29.691Z,99.90
2018-08-13T12:59:33.015Z,99.90
2018-08-13T13:00:36.411Z,99.90
2018-08-13T13:01:39.734Z,99.90
2018-08-13T13:02:43.193Z,99.90
2018-08-13T13:03:46.581Z,99.90
2018-08-13T13:04:49.926Z,99.90
2018-08-13T13:05:53.290Z,99.90
2018-08-13T13:06:56.645Z,99.90
2018-08-13T13:08:00.043Z,99.90
2018-08-13T13:09:04.469Z,99.90
2018-08-13T13:10:10.377Z,99.90
2018-08-13T13:11:13.725Z,99.90
2018-08-13T13:12:17.091Z,99.90
2018-08-13T13:13:20.423Z,99.90
2018-08-13T13:14:23.807Z,99.90
2018-08-13T13:15:27.158Z,99.90
2018-08-13T13:16:30.503Z,99.90
2018-08-13T13:17:33.830Z,99.90
2018-08-13T13:18:37.208Z,99.90
2018-08-13T13:19:40.565Z,99.90
2018-08-13T13:20:43.923Z,99.90
2018-08-13T13:21:47.267Z,99.90
2018-08-13T13:22:51.060Z,99.90
2018-08-13T13:23:54.420Z,99.90
2018-08-13T13:24:57.774Z,99.90
2018-08-13T13:26:01.162Z,99.90
2018-08-13T13:27:04.509Z,99.90
2018-08-13T13:28:07.855Z,99.90
2018-08-13T13:29:11.240Z,99.90
2018-08-13T13:30:15.739Z,99.90
2018-08-13T13:31:19.100Z,99.90
2018-08-13T13:32:22.472Z,99.90
2018-08-13T13:33:25.811Z,99.90
2018-08-13T13:34:29.176Z,99.90
2018-08-13T13:35:32.542Z,99.90
2018-08-13T13:36:35.960Z,99.90
2018-08-13T13:37:39.271Z,99.90
2018-08-13T13:38:42.583Z,99.90
2018-08-13T13:39:45.921Z,99.90
2018-08-13T13:40:49.294Z,99.90
2018-08-13T13:41:52.610Z,99.90
2018-08-13T13:42:55.959Z,99.90
2018-08-13T13:43:59.284Z,99.90